createdAt,value
2019-04-01T00:00:36.796Z,102416.67
2019-04-01T00:03:08.094Z,102412.15
2019-04-01T00:05:38.457Z,102411.67
2019-04-01T00:08:08.720Z,102411.52
2019-04-01T00:10:39.045Z,102411.97
2019-04-01T00:13:09.676Z,102419.39
2019-04-01T00:15:40.215Z,102413.21
2019-04-01T00:18:10.510Z,102412.77
2019-04-01T00:20:40.960Z,102413.66
2019-04-01T00:23:11.387Z,102412.84
2019-04-01T00:25:41.977Z,102412.48
2019-04-01T00:28:12.550Z,102413.34
2019-04-01T00:30:42.876Z,102421.36
2019-04-01T00:33:14.080Z,102418.75
2019-04-01T00:35:44.347Z,102413.84
2019-04-01T00:38:14.791Z,102421.38
2019-04-01T00:40:45.096Z,102425.34
2019-04-01T00:43:19.986Z,102429.76
2019-04-01T00:45:51.304Z,102427.54
2019-04-01T00:48:21.900Z,102416.98
2019-04-01T00:50:52.335Z,102425.69
2019-04-01T00:53:22.684Z,102420.39
2019-04-01T00:55:53.043Z,102426.17
2019-04-01T00:58:23.920Z,102422.66
2019-04-01T01:00:54.306Z,102420.41
2019-04-01T01:03:25.173Z,102409.36
2019-04-01T01:05:55.905Z,102415.00
2019-04-01T01:08:27.704Z,102419.39
2019-04-01T01:10:57.975Z,102414.56
2019-04-01T01:13:29.199Z,102414.05
2019-04-01T01:15:59.478Z,102416.75
2019-04-01T01:18:30.718Z,102420.66
2019-04-01T01:21:01.833Z,102422.87
2019-04-01T01:23:32.531Z,102416.59
2019-04-01T01:26:02.928Z,102411.27
2019-04-01T01:28:36.034Z,102416.14
2019-04-01T01:31:06.790Z,102416.70
2019-04-01T01:33:37.631Z,102420.13
2019-04-01T01:36:08.046Z,102419.16
2019-04-01T01:38:38.913Z,102415.14
2019-04-01T01:41:09.487Z,102412.31
2019-04-01T01:43:40.896Z,102408.77
2019-04-01T01:46:11.163Z,102410.52
2019-04-01T01:48:41.427Z,102406.61
2019-04-01T01:51:11.807Z,102406.13
2019-04-01T01:53:42.339Z,102403.20
2019-04-01T01:56:12.867Z,102403.25
2019-04-01T01:58:43.628Z,102399.39
2019-04-01T02:01:14.314Z,102410.87
2019-04-01T02:03:45.201Z,102402.13
2019-04-01T02:06:15.527Z,102397.84
2019-04-01T02:08:46.049Z,102396.66
2019-04-01T02:11:17.178Z,102392.33
2019-04-01T02:13:47.525Z,102393.66
2019-04-01T02:16:17.892Z,102387.67
2019-04-01T02:18:48.189Z,102394.31
2019-04-01T02:21:18.449Z,102387.30
2019-04-01T02:23:49.209Z,102384.23
2019-04-01T02:26:20.522Z,102388.19
2019-04-01T02:28:50.768Z,102383.36
2019-04-01T02:31:21.022Z,102380.40
2019-04-01T02:33:51.790Z,102393.24
2019-04-01T02:36:22.265Z,102390.74
2019-04-01T02:38:52.879Z,102385.54
2019-04-01T02:41:23.577Z,102391.78
2019-04-01T02:43:54.157Z,102390.05
2019-04-01T02:46:24.422Z,102397.09
2019-04-01T02:48:54.661Z,102407.67
2019-04-01T02:51:25.317Z,102398.02
2019-04-01T02:53:55.537Z,102390.16
2019-04-01T02:56:25.819Z,102391.05
2019-04-01T02:58:56.043Z,102397.64
2019-04-01T03:01:26.642Z,102390.16
2019-04-01T03:03:57.538Z,102394.96
2019-04-01T03:06:28.160Z,102394.07
2019-04-01T03:08:58.737Z,102396.28
2019-04-01T03:11:29.604Z,102390.17
2019-04-01T03:13:59.927Z,102387.97
2019-04-01T03:16:31.151Z,102393.26
2019-04-01T03:19:01.642Z,102392.83
2019-04-01T03:21:32.260Z,102388.95
2019-04-01T03:24:02.605Z,102398.61
2019-04-01T03:26:33.450Z,102396.84
2019-04-01T03:29:03.799Z,102392.04
2019-04-01T03:31:34.080Z,102391.17
2019-04-01T03:34:04.891Z,102396.51
2019-04-01T03:36:35.269Z,102399.57
2019-04-01T03:39:07.336Z,102398.70
2019-04-01T03:41:37.927Z,102396.51
2019-04-01T03:44:09.580Z,102399.63
2019-04-01T03:46:39.855Z,102400.07
2019-04-01T03:49:10.248Z,102399.22
2019-04-01T03:51:40.928Z,102401.84
2019-04-01T03:54:11.465Z,102392.98
2019-04-01T03:56:42.153Z,102398.25
2019-04-01T03:59:12.560Z,102399.98
2019-04-01T04:01:42.799Z,102397.75
2019-04-01T04:04:13.708Z,102405.27
2019-04-01T04:06:43.922Z,102401.77
2019-04-01T04:09:14.175Z,102399.18
2019-04-01T04:11:44.537Z,102406.66
2019-04-01T04:14:15.187Z,102403.56
2019-04-01T04:16:45.937Z,102403.52
2019-04-01T04:19:16.390Z,102401.31
2019-04-01T04:21:46.817Z,102418.00
2019-04-01T04:24:17.573Z,102414.08
2019-04-01T04:26:48.236Z,102413.63
2019-04-01T04:29:18.905Z,102415.38
2019-04-01T04:31:50.027Z,102414.03
2019-04-01T04:34:20.779Z,102420.61
2019-04-01T04:36:51.820Z,102421.97
2019-04-01T04:39:22.085Z,102418.94
2019-04-01T04:41:53.639Z,102421.16
2019-04-01T04:44:24.383Z,102424.70
2019-04-01T04:46:54.661Z,102422.09
2019-04-01T04:49:25.644Z,102415.52
2019-04-01T04:51:56.344Z,102420.28
2019-04-01T04:54:26.575Z,102418.05
2019-04-01T04:56:56.851Z,102426.80
2019-04-01T04:59:27.135Z,102424.52
2019-04-01T05:01:57.502Z,102421.39
2019-04-01T05:04:28.305Z,102426.20
2019-04-01T05:06:59.004Z,102425.72
2019-04-01T05:09:29.197Z,102430.45
2019-04-01T05:11:59.561Z,102434.78
2019-04-01T05:14:29.874Z,102423.71
2019-04-01T05:17:00.639Z,102428.43
2019-04-01T05:19:31.006Z,102431.34
2019-04-01T05:22:01.364Z,102440.82
2019-04-01T05:24:32.370Z,102433.21
2019-04-01T05:27:04.619Z,102433.03
2019-04-01T05:29:36.214Z,102441.70
2019-04-01T05:32:07.034Z,102446.47
2019-04-01T05:34:37.559Z,102442.50
2019-04-01T05:37:09.107Z,102438.99
2019-04-01T05:39:40.112Z,102443.33
2019-04-01T05:42:10.649Z,102442.27
2019-04-01T05:44:41.359Z,102435.61
2019-04-01T05:47:11.640Z,102437.78
2019-04-01T05:49:42.253Z,102437.70
2019-04-01T05:52:12.786Z,102441.48
2019-04-01T05:54:44.262Z,102438.98
2019-04-01T05:57:15.973Z,102439.77
2019-04-01T05:59:47.133Z,102444.52
2019-04-01T06:02:17.386Z,102451.27
2019-04-01T06:04:48.039Z,102446.23
2019-04-01T06:07:19.514Z,102448.94
2019-04-01T06:09:49.949Z,102448.45
2019-04-01T06:12:24.142Z,102451.77
2019-04-01T06:14:53.820Z,102449.84
2019-04-01T06:17:24.086Z,102444.34
2019-04-01T06:19:55.126Z,102445.14
2019-04-01T06:22:25.456Z,102445.91
2019-04-01T06:24:58.241Z,102447.14
2019-04-01T06:27:29.131Z,102446.87
2019-04-01T06:30:00.012Z,102448.69
2019-04-01T06:32:30.426Z,102444.41
2019-04-01T06:35:00.756Z,102440.26
2019-04-01T06:37:31.907Z,102449.91
2019-04-01T06:40:02.378Z,102447.01
2019-04-01T06:42:33.509Z,102445.34
2019-04-01T06:45:05.028Z,102446.59
2019-04-01T06:47:35.262Z,102452.61
2019-04-01T06:50:06.029Z,102450.75
2019-04-01T06:52:36.350Z,102454.54
2019-04-01T06:55:07.260Z,102453.14
2019-04-01T06:57:37.617Z,102454.45
2019-04-01T07:00:08.495Z,102455.58
2019-04-01T07:02:39.742Z,102455.33
2019-04-01T07:05:12.604Z,102459.42
2019-04-01T07:07:42.957Z,102460.86
2019-04-01T07:10:13.408Z,102462.34
2019-04-01T07:12:43.907Z,102465.30
2019-04-01T07:15:14.547Z,102461.78
2019-04-01T07:17:45.259Z,102466.34
2019-04-01T07:20:15.943Z,102466.45
2019-04-01T07:22:46.590Z,102471.13
2019-04-01T07:25:17.380Z,102475.10
2019-04-01T07:27:48.056Z,102478.17
2019-04-01T07:30:19.549Z,102472.73
2019-04-01T07:32:50.301Z,102476.98
2019-04-01T07:35:21.029Z,102477.91
2019-04-01T07:37:51.445Z,102480.33
2019-04-01T07:40:22.469Z,102477.72
2019-04-01T07:42:54.253Z,102476.03
2019-04-01T07:45:24.507Z,102470.31
2019-04-01T07:47:54.753Z,102475.56
2019-04-01T07:50:25.811Z,102471.14
2019-04-01T07:52:56.048Z,102469.98
2019-04-01T07:55:26.735Z,102473.66
2019-04-01T07:57:59.731Z,102468.30
2019-04-01T08:00:29.883Z,102471.18
2019-04-01T08:03:00.096Z,102469.63
2019-04-01T08:05:30.461Z,102471.03
2019-04-01T08:08:01.276Z,102468.13
2019-04-01T08:10:31.737Z,102462.73
2019-04-01T08:13:02.640Z,102465.03
2019-04-01T08:15:32.948Z,102470.80
2019-04-01T08:18:03.250Z,102465.23
2019-04-01T08:20:33.547Z,102473.00
2019-04-01T08:23:03.866Z,102469.17
2019-04-01T08:25:34.600Z,102466.61
2019-04-01T08:28:05.060Z,102458.38
2019-04-01T08:30:35.376Z,102462.42
2019-04-01T08:33:05.679Z,102465.84
2019-04-01T08:35:36.046Z,102470.37
2019-04-01T08:38:06.646Z,102464.91
2019-04-01T08:40:37.453Z,102466.03
2019-04-01T08:43:08.743Z,102472.84
2019-04-01T08:45:39.315Z,102463.90
2019-04-01T08:48:09.664Z,102464.09
2019-04-01T08:50:40.235Z,102463.48
2019-04-01T08:53:10.515Z,102462.96
2019-04-01T08:55:41.682Z,102465.64
2019-04-01T08:58:12.596Z,102465.98
2019-04-01T09:00:43.209Z,102450.55
2019-04-01T09:03:13.741Z,102453.72
2019-04-01T09:05:44.029Z,102459.98
2019-04-01T09:08:14.338Z,102458.14
2019-04-01T09:10:44.785Z,102453.14
2019-04-01T09:13:15.647Z,102454.13
2019-04-01T09:15:46.013Z,102447.84
2019-04-01T09:18:16.317Z,102445.84
2019-04-01T09:20:46.608Z,102447.27
2019-04-01T09:23:17.503Z,102451.09
2019-04-01T09:25:48.261Z,102448.26
2019-04-01T09:28:18.739Z,102437.30
2019-04-01T09:30:49.478Z,102442.70
2019-04-01T09:33:20.129Z,102439.47
2019-04-01T09:35:51.171Z,102435.06
2019-04-01T09:38:21.620Z,102432.06
2019-04-01T09:40:52.723Z,102429.77
2019-04-01T09:43:24.023Z,102414.52
2019-04-01T09:45:54.945Z,102414.52
2019-04-01T09:48:25.268Z,102421.94
2019-04-01T09:50:55.686Z,102408.84
2019-04-01T09:53:26.751Z,102400.19
2019-04-01T09:55:57.879Z,102409.15
2019-04-01T09:58:28.200Z,102406.78
2019-04-01T10:00:58.852Z,102406.78
2019-04-01T10:03:29.205Z,102387.92
2019-04-01T10:05:59.656Z,102405.38
2019-04-01T10:08:42.051Z,102402.46
2019-04-01T10:11:03.177Z,102396.46
2019-04-01T10:13:33.520Z,102392.37
2019-04-01T10:16:03.845Z,102393.92
2019-04-01T10:18:34.132Z,102397.61
2019-04-01T10:21:04.434Z,102399.66
2019-04-01T10:23:34.721Z,102394.95
2019-04-01T10:26:05.477Z,102391.02
2019-04-01T10:28:35.987Z,102395.35
2019-04-01T10:31:06.480Z,102386.42
2019-04-01T10:33:36.802Z,102386.34
2019-04-01T10:36:07.165Z,102388.76
2019-04-01T10:38:37.902Z,102382.55
2019-04-01T10:41:08.200Z,102383.16
2019-04-01T10:43:38.421Z,102380.19
2019-04-01T10:46:12.109Z,102370.75
2019-04-01T10:48:40.833Z,102367.45
2019-04-01T10:51:12.666Z,102369.75
2019-04-01T10:53:43.297Z,102364.03
2019-04-01T10:56:13.828Z,102360.22
2019-04-01T10:58:44.537Z,102362.84
2019-04-01T11:01:14.982Z,102355.45
2019-04-01T11:03:46.160Z,102351.30
2019-04-01T11:06:17.176Z,102342.66
2019-04-01T11:08:47.440Z,102345.15
2019-04-01T11:11:17.681Z,102348.27
2019-04-01T11:13:51.573Z,102340.83
2019-04-01T11:16:20.098Z,102344.29
2019-04-01T11:18:51.244Z,102336.83
2019-04-01T11:21:21.495Z,102325.27
2019-04-01T11:23:52.114Z,102325.81
2019-04-01T11:26:22.827Z,102330.39
2019-04-01T11:28:53.517Z,102333.23
2019-04-01T11:31:23.966Z,102324.88
2019-04-01T11:33:54.436Z,102322.77
2019-04-01T11:36:26.000Z,102319.90
2019-04-01T11:38:56.274Z,102324.88
2019-04-01T11:41:26.655Z,102312.58
2019-04-01T11:43:57.480Z,102309.06
2019-04-01T11:46:28.460Z,102308.97
2019-04-01T11:48:59.253Z,102311.48
2019-04-01T11:51:33.510Z,102313.02
2019-04-01T11:54:03.218Z,102304.94
2019-04-01T11:56:33.547Z,102296.19
2019-04-01T11:59:04.009Z,102292.19
2019-04-01T12:01:36.772Z,102292.19
2019-04-01T12:04:06.899Z,102288.26
2019-04-01T12:06:37.482Z,102281.92
2019-04-01T12:09:08.889Z,102278.54
2019-04-01T12:11:39.991Z,102266.44
2019-04-01T12:14:10.323Z,102261.06
2019-04-01T12:16:41.410Z,102267.98
2019-04-01T12:19:12.221Z,102265.11
2019-04-01T12:21:43.206Z,102257.80
2019-04-01T12:24:13.585Z,102257.80
2019-04-01T12:26:44.745Z,102249.52
2019-04-01T12:29:15.674Z,102249.45
2019-04-01T12:31:46.122Z,102251.64
2019-04-01T12:34:17.572Z,102247.91
2019-04-01T12:36:49.296Z,102237.45
2019-04-01T12:39:20.367Z,102227.58
2019-04-01T12:41:50.662Z,102228.88
2019-04-01T12:44:21.680Z,102215.97
2019-04-01T12:46:52.886Z,102219.73
2019-04-01T12:49:26.861Z,102214.88
2019-04-01T12:51:59.269Z,102209.94
2019-04-01T12:54:29.557Z,102205.70
2019-04-01T12:57:00.861Z,102195.05
2019-04-01T12:59:31.817Z,102196.61
2019-04-01T13:02:02.123Z,102181.75
2019-04-01T13:04:35.932Z,102183.60
2019-04-01T13:07:05.873Z,102180.13
2019-04-01T13:09:36.351Z,102180.78
2019-04-01T13:12:06.965Z,102172.89
2019-04-01T13:14:40.115Z,102175.14
2019-04-01T13:17:10.536Z,102169.18
2019-04-01T13:19:40.784Z,102157.12
2019-04-01T13:22:11.242Z,102157.34
2019-04-01T13:24:41.820Z,102148.30
2019-04-01T13:27:12.905Z,102140.41
2019-04-01T13:29:43.337Z,102143.45
2019-04-01T13:32:13.766Z,102133.31
2019-04-01T13:34:44.563Z,102134.64
2019-04-01T13:37:15.807Z,102121.31
2019-04-01T13:39:46.659Z,102117.66
2019-04-01T13:42:16.965Z,102115.06
2019-04-01T13:44:47.750Z,102108.47
2019-04-01T13:47:18.666Z,102104.87
2019-04-01T13:49:49.724Z,102095.92
2019-04-01T13:52:21.073Z,102092.56
2019-04-01T13:54:52.531Z,102090.44
2019-04-01T13:57:24.585Z,102082.69
2019-04-01T13:59:54.849Z,102083.39
2019-04-01T14:02:26.619Z,102083.13
2019-04-01T14:04:57.698Z,102072.59
2019-04-01T14:07:28.540Z,102072.59
2019-04-01T14:09:58.843Z,102065.91
2019-04-01T14:12:29.116Z,102064.27
2019-04-01T14:15:00.139Z,102072.64
2019-04-01T14:17:30.843Z,102065.61
2019-04-01T14:20:01.424Z,102057.80
2019-04-01T14:22:32.239Z,102047.19
2019-04-01T14:25:02.475Z,102043.14
2019-04-01T14:27:34.123Z,102045.49
2019-04-01T14:30:05.718Z,102039.17
2019-04-01T14:32:36.062Z,102029.23
2019-04-01T14:35:07.451Z,102023.77
2019-04-01T14:37:39.739Z,102023.38
2019-04-01T14:40:10.149Z,102020.59
2019-04-01T14:42:41.096Z,102012.56
2019-04-01T14:45:11.497Z,102014.75
2019-04-01T14:47:56.626Z,102012.73
2019-04-01T14:50:15.171Z,102005.97
2019-04-01T14:52:45.915Z,101999.47
2019-04-01T14:55:16.369Z,102000.11
2019-04-01T14:57:46.680Z,101993.52
2019-04-01T15:00:18.184Z,101985.81
2019-04-01T15:02:48.540Z,101985.08
2019-04-01T15:05:20.744Z,101983.86
2019-04-01T15:07:52.277Z,101972.86
2019-04-01T15:10:23.123Z,101970.00
2019-04-01T15:13:04.994Z,101962.87
2019-04-01T15:15:26.161Z,101957.25
2019-04-01T15:17:56.494Z,101954.17
2019-04-01T15:20:27.027Z,101947.03
2019-04-01T15:22:57.270Z,101941.70
2019-04-01T15:25:27.940Z,101943.50
2019-04-01T15:27:58.500Z,101938.84
2019-04-01T15:30:31.902Z,101937.36
2019-04-01T15:33:02.178Z,101927.86
2019-04-01T15:35:32.541Z,101916.86
2019-04-01T15:38:02.908Z,101919.95
2019-04-01T15:40:33.492Z,101917.80
2019-04-01T15:43:04.492Z,101917.80
2019-04-01T15:45:35.436Z,101907.55
2019-04-01T15:48:07.560Z,101906.43
2019-04-01T15:50:38.410Z,101901.86
2019-04-01T15:53:09.047Z,101902.45
2019-04-01T15:55:39.717Z,101895.11
2019-04-01T15:58:09.952Z,101887.25
2019-04-01T16:00:40.203Z,101882.94
2019-04-01T16:03:10.685Z,101885.73
2019-04-01T16:05:40.910Z,101875.30
2019-04-01T16:08:11.276Z,101871.25
2019-04-01T16:10:41.561Z,101875.25
2019-04-01T16:13:14.108Z,101874.67
2019-04-01T16:15:44.993Z,101872.20
2019-04-01T16:18:15.782Z,101874.45
2019-04-01T16:20:47.089Z,101861.28
2019-04-01T16:23:18.971Z,101866.33
2019-04-01T16:25:50.291Z,101856.58
2019-04-01T16:28:20.979Z,101861.24
2019-04-01T16:30:51.334Z,101860.39
2019-04-01T16:33:21.776Z,101855.50
2019-04-01T16:35:52.220Z,101855.67
2019-04-01T16:38:22.832Z,101854.34
2019-04-01T16:40:53.732Z,101853.34
2019-04-01T16:43:25.709Z,101849.14
2019-04-01T16:45:58.585Z,101845.97
2019-04-01T16:48:30.098Z,101849.89
2019-04-01T16:51:02.373Z,101843.31
2019-04-01T16:53:33.672Z,101844.50
2019-04-01T16:56:05.232Z,101848.34
2019-04-01T16:58:36.565Z,101844.75
2019-04-01T17:01:07.295Z,101848.02
2019-04-01T17:03:37.567Z,101845.69
2019-04-01T17:06:08.360Z,101839.92
2019-04-01T17:08:39.315Z,101845.12
2019-04-01T17:11:09.834Z,101838.97
2019-04-01T17:13:40.472Z,101834.13
2019-04-01T17:16:11.679Z,101826.55
2019-04-01T17:18:42.848Z,101825.63
2019-04-01T17:21:14.882Z,101824.55
2019-04-01T17:23:47.165Z,101822.87
2019-04-01T17:26:18.422Z,101817.39
2019-04-01T17:28:52.264Z,101815.17
2019-04-01T17:31:23.051Z,101816.91
2019-04-01T17:33:56.191Z,101821.42
2019-04-01T17:36:30.187Z,101814.16
2019-04-01T17:39:00.623Z,101818.23
2019-04-01T17:41:31.288Z,101818.56
2019-04-01T17:44:01.720Z,101814.66
2019-04-01T17:46:32.917Z,101810.55
2019-04-01T17:49:04.130Z,101811.23
2019-04-01T17:51:34.740Z,101811.20
2019-04-01T17:54:09.616Z,101816.39
2019-04-01T17:56:46.307Z,101812.63
2019-04-01T17:59:17.556Z,101815.45
2019-04-01T18:01:48.269Z,101810.24
2019-04-01T18:04:27.206Z,101803.20
2019-04-01T18:06:58.438Z,101809.23
2019-04-01T18:09:44.796Z,101805.31
2019-04-01T18:12:15.350Z,101803.61
2019-04-01T18:14:51.663Z,101806.26
2019-04-01T18:17:45.935Z,101803.46
2019-04-01T18:20:20.078Z,101802.39
2019-04-01T18:22:49.476Z,101799.73
2019-04-01T18:25:21.057Z,101803.18
2019-04-01T18:27:54.806Z,101796.75
2019-04-01T18:30:25.909Z,101797.27
2019-04-01T18:32:56.468Z,101798.00
2019-04-01T18:35:28.813Z,101802.49
2019-04-01T18:37:59.551Z,101797.31
2019-04-01T18:40:32.989Z,101798.05
2019-04-01T18:43:02.411Z,101795.64
2019-04-01T18:45:32.684Z,101798.66
2019-04-01T18:48:03.417Z,101791.71
2019-04-01T18:50:33.733Z,101791.52
2019-04-01T18:53:03.996Z,101791.77
2019-04-01T18:55:34.949Z,101792.58
2019-04-01T18:58:05.746Z,101797.07
2019-04-01T19:00:36.568Z,101795.28
2019-04-01T19:03:07.706Z,101794.36
2019-04-01T19:05:39.593Z,101799.31
2019-04-01T19:08:10.023Z,101791.53
2019-04-01T19:10:41.608Z,101794.65
2019-04-01T19:13:13.370Z,101798.30
2019-04-01T19:15:44.100Z,101792.34
2019-04-01T19:18:15.238Z,101796.50
2019-04-01T19:20:56.063Z,101789.08
2019-04-01T19:23:19.042Z,101786.77
2019-04-01T19:25:54.289Z,101778.59
2019-04-01T19:28:26.047Z,101778.99
2019-04-01T19:30:58.135Z,101777.67
2019-04-01T19:33:28.676Z,101773.75
2019-04-01T19:36:01.237Z,101769.39
2019-04-01T19:38:34.647Z,101773.58
2019-04-01T19:41:06.671Z,101771.85
2019-04-01T19:43:37.205Z,101772.66
2019-04-01T19:46:09.426Z,101764.94
2019-04-01T19:48:44.840Z,101753.17
2019-04-01T19:51:18.685Z,101752.69
2019-04-01T19:53:49.246Z,101747.17
2019-04-01T19:56:21.305Z,101742.28
2019-04-01T19:58:51.941Z,101746.72
2019-04-01T20:01:24.787Z,101745.69
2019-04-01T20:03:56.284Z,101742.41
2019-04-01T20:06:27.912Z,101734.45
2019-04-01T20:08:58.631Z,101739.64
2019-04-01T20:11:29.183Z,101732.69
2019-04-01T20:14:01.315Z,101729.34
2019-04-01T20:16:32.272Z,101733.83
2019-04-01T20:19:04.406Z,101728.82
2019-04-01T20:21:36.176Z,101731.87
2019-04-01T20:24:06.501Z,101728.16
2019-04-01T20:26:37.759Z,101725.21
2019-04-01T20:29:10.161Z,101726.63
2019-04-01T20:31:57.361Z,101721.95
2019-04-01T20:34:19.927Z,101718.52
2019-04-01T20:36:48.095Z,101710.28
2019-04-01T20:39:18.872Z,101714.34
2019-04-01T20:41:49.269Z,101706.80
2019-04-01T20:44:29.232Z,101712.16
2019-04-01T20:47:03.133Z,101703.34
2019-04-01T20:49:34.165Z,101701.21
2019-04-01T20:52:05.851Z,101693.27
2019-04-01T20:54:45.483Z,101695.16
2019-04-01T20:57:17.335Z,101690.49
2019-04-01T20:59:49.214Z,101691.41
2019-04-01T21:02:20.501Z,101689.11
2019-04-01T21:05:06.977Z,101691.02
2019-04-01T21:07:42.740Z,101688.63
2019-04-01T21:10:19.579Z,101689.51
2019-04-01T21:12:53.475Z,101686.63
2019-04-01T21:15:37.760Z,101678.10
2019-04-01T21:18:08.349Z,101686.83
2019-04-01T21:20:44.273Z,101686.58
2019-04-01T21:23:16.372Z,101679.89
2019-04-01T21:26:00.040Z,101684.33
2019-04-01T21:28:39.013Z,101677.12
2019-04-01T21:31:34.247Z,101677.55
2019-04-01T21:40:57.931Z,101648.80
2019-04-01T21:43:28.404Z,101652.45
2019-04-01T21:45:59.805Z,101641.58
2019-04-01T21:48:33.488Z,101640.13
2019-04-01T21:51:04.551Z,101638.47
2019-04-01T21:53:36.742Z,101634.70
2019-04-01T21:56:26.216Z,101630.58
2019-04-01T21:59:19.299Z,101634.20
2019-04-01T22:01:52.763Z,101620.77
2019-04-01T22:04:27.892Z,101619.39
2019-04-01T22:06:58.708Z,101615.73
2019-04-01T22:09:29.033Z,101610.97
2019-04-01T22:12:01.097Z,101611.75
2019-04-01T22:14:32.196Z,101605.67
2019-04-01T22:17:03.629Z,101599.70
2019-04-01T22:19:34.048Z,101600.03
2019-04-01T22:22:05.465Z,101590.95
2019-04-01T22:24:36.121Z,101584.88
2019-04-01T22:27:06.931Z,101586.11
2019-04-01T22:29:37.661Z,101584.53
2019-04-01T22:32:08.505Z,101580.34
2019-04-01T22:34:40.028Z,101570.13
2019-04-01T22:37:10.790Z,101579.23
2019-04-01T22:39:41.114Z,101568.87
2019-04-01T22:42:11.409Z,101564.98
2019-04-01T22:44:42.632Z,101564.12
2019-04-01T22:47:13.262Z,101565.23
2019-04-01T22:49:43.619Z,101559.53
2019-04-01T22:52:14.479Z,101560.14
2019-04-01T22:54:44.920Z,101554.96
2019-04-01T22:57:15.285Z,101551.27
2019-04-01T22:59:45.653Z,101545.94
2019-04-01T23:02:15.903Z,101544.95
2019-04-01T23:04:47.175Z,101539.58
2019-04-01T23:07:17.806Z,101539.05
2019-04-01T23:09:48.056Z,101538.84
2019-04-01T23:12:18.659Z,101533.55
2019-04-01T23:14:49.163Z,101532.22
2019-04-01T23:17:19.646Z,101523.73
2019-04-01T23:19:50.866Z,101526.52
2019-04-01T23:22:21.239Z,101525.86
2019-04-01T23:24:51.562Z,101523.61
2019-04-01T23:27:23.165Z,101522.97
2019-04-01T23:29:54.309Z,101517.86
2019-04-01T23:32:25.247Z,101518.26
2019-04-01T23:34:55.518Z,101518.66
2019-04-01T23:37:25.888Z,101517.33
2019-04-01T23:39:56.205Z,101516.01
2019-04-01T23:42:28.106Z,101513.36
2019-04-01T23:44:58.882Z,101508.05
2019-04-01T23:47:30.446Z,101504.61
2019-04-01T23:50:00.949Z,101495.79
2019-04-01T23:52:31.210Z,101488.06
2019-04-01T23:55:02.140Z,101487.60
2019-04-01T23:57:33.016Z,101481.50
